Time;durP1;ratioP1;P1;durP2;ratioP2;P2;SDS_P1;SDS_P2;PMS_P1;PMS_P2;Temp;Humidity;BMP_temperature;BMP_pressure;BME280_temperature;BME280_humidity;BME280_pressure;Samples;Min_cycle;Max_cycle;Signal;HPM_P1;HPM_P2
2021/03/04 00:02:47;;;;;;;60.95;32.92;;;23.20;33.20;;;;;;6166996;28;84553;-67
2021/03/04 00:05:48;;;;;;;62.70;34.08;;;23.20;33.40;;;;;;6175567;28;83122;-67
2021/03/04 00:08:48;;;;;;;57.65;32.70;;;23.20;33.50;;;;;;6168041;28;83412;-66
2021/03/04 00:11:49;;;;;;;61.17;32.30;;;23.20;33.30;;;;;;6172977;28;83532;-65
2021/03/04 00:14:49;;;;;;;57.15;32.10;;;23.20;33.30;;;;;;6158572;28;86005;-67
2021/03/04 00:17:50;;;;;;;58.90;33.28;;;23.20;33.40;;;;;;6172409;28;84036;-66
2021/03/04 00:20:52;;;;;;;65.78;34.67;;;23.20;33.40;;;;;;6166730;28;83652;-67
2021/03/04 00:23:52;;;;;;;62.50;34.78;;;23.20;33.20;;;;;;6171718;28;83631;-68
2021/03/04 00:26:53;;;;;;;60.60;33.42;;;23.20;33.30;;;;;;6174121;28;82840;-68
2021/03/04 00:29:53;;;;;;;58.10;33.85;;;23.20;33.20;;;;;;6174339;28;83259;-69
2021/03/04 00:32:54;;;;;;;57.65;32.33;;;23.20;33.30;;;;;;6169471;28;83895;-66
2021/03/04 00:35:54;;;;;;;58.40;33.03;;;23.20;33.20;;;;;;6174875;28;83900;-66
2021/03/04 00:38:55;;;;;;;56.47;31.75;;;23.10;33.20;;;;;;6162895;28;85279;-66
2021/03/04 00:41:55;;;;;;;58.17;32.45;;;23.10;33.00;;;;;;6173805;28;84416;-67
2021/03/04 00:44:56;;;;;;;57.30;32.05;;;23.10;33.30;;;;;;6173306;28;83602;-66
2021/03/04 00:47:56;;;;;;;56.55;30.20;;;23.10;32.90;;;;;;6166835;28;83442;-66
2021/03/04 00:50:57;;;;;;;50.85;30.00;;;23.10;33.20;;;;;;6167993;28;83549;-66
2021/03/04 00:53:57;;;;;;;53.95;30.75;;;23.10;32.80;;;;;;6172122;28;83743;-66
2021/03/04 00:56:58;;;;;;;56.88;31.42;;;23.10;32.70;;;;;;6173643;27;83448;-66
2021/03/04 00:59:59;;;;;;;55.30;29.98;;;23.10;32.60;;;;;;6166507;28;83579;-65
2021/03/04 01:02:59;;;;;;;51.95;28.60;;;23.10;32.70;;;;;;6173773;28;84450;-66
2021/03/04 01:06:00;;;;;;;49.30;28.77;;;23.10;33.00;;;;;;6172746;28;84083;-66
2021/03/04 01:09:00;;;;;;;47.90;27.00;;;23.10;33.50;;;;;;6155843;27;83261;-66
2021/03/04 01:12:01;;;;;;;49.72;26.80;;;23.00;33.40;;;;;;6163158;28;83553;-67
2021/03/04 01:15:01;;;;;;;47.28;27.05;;;23.10;33.10;;;;;;6173578;28;84465;-66
2021/03/04 01:18:02;;;;;;;39.40;23.40;;;23.10;33.20;;;;;;6165831;28;83515;-67
2021/03/04 01:21:03;;;;;;;43.97;25.33;;;23.10;33.00;;;;;;6171512;27;83202;-66
2021/03/04 01:24:03;;;;;;;41.50;23.75;;;23.10;33.50;;;;;;6157417;28;86522;-66
2021/03/04 01:27:04;;;;;;;45.40;26.20;;;23.10;33.10;;;;;;6173005;28;84901;-65
2021/03/04 01:30:04;;;;;;;42.45;23.25;;;23.10;33.20;;;;;;6167919;28;83341;-65
2021/03/04 01:33:05;;;;;;;42.90;24.05;;;23.10;33.10;;;;;;6152724;28;85965;-65
2021/03/04 01:36:05;;;;;;;44.63;24.73;;;23.10;33.70;;;;;;6166320;28;84450;-65
2021/03/04 01:39:06;;;;;;;37.08;22.25;;;23.10;33.60;;;;;;6169631;27;83778;-66
2021/03/04 01:42:06;;;;;;;39.97;23.63;;;23.00;33.60;;;;;;6170315;28;83236;-65
2021/03/04 01:45:07;;;;;;;35.10;21.13;;;23.00;33.40;;;;;;6171592;28;83355;-65
2021/03/04 01:48:07;;;;;;;38.75;22.92;;;23.00;33.60;;;;;;6163930;28;93188;-65
2021/03/04 01:51:08;;;;;;;37.33;23.05;;;23.00;33.60;;;;;;6169294;28;83330;-65
2021/03/04 01:54:08;;;;;;;35.67;20.45;;;23.00;33.30;;;;;;6166662;28;83263;-65
2021/03/04 01:57:09;;;;;;;41.10;22.73;;;23.00;33.60;;;;;;6148963;27;86016;-66
2021/03/04 02:00:09;;;;;;;38.15;22.05;;;23.00;33.20;;;;;;6169536;28;83230;-65
2021/03/04 02:03:10;;;;;;;36.72;22.33;;;23.00;33.50;;;;;;6166728;27;83252;-65
2021/03/04 02:06:10;;;;;;;38.30;22.30;;;23.00;33.10;;;;;;6167289;28;83156;-65
2021/03/04 02:09:11;;;;;;;36.83;21.02;;;23.00;33.00;;;;;;6172169;28;83855;-66
2021/03/04 02:12:11;;;;;;;37.10;21.05;;;23.00;33.20;;;;;;6171571;28;83537;-66
2021/03/04 02:15:12;;;;;;;35.47;21.08;;;23.00;32.90;;;;;;6170863;28;83366;-65
2021/03/04 02:18:12;;;;;;;39.92;21.05;;;23.00;33.10;;;;;;6165115;28;86788;-65
2021/03/04 02:21:13;;;;;;;38.20;21.08;;;23.00;33.20;;;;;;6167547;28;84291;-65
2021/03/04 02:24:13;;;;;;;36.63;20.52;;;23.00;33.10;;;;;;6165306;28;83244;-65
2021/03/04 02:27:14;;;;;;;38.13;22.27;;;23.00;33.50;;;;;;6167751;28;84247;-65
2021/03/04 02:30:15;;;;;;;34.95;20.35;;;22.90;33.40;;;;;;6163322;28;83069;-65
2021/03/04 02:33:15;;;;;;;34.20;20.50;;;22.90;33.00;;;;;;6161414;28;84950;-65
2021/03/04 02:36:16;;;;;;;33.65;18.75;;;22.90;33.40;;;;;;6161380;28;83616;-65
2021/03/04 02:39:16;;;;;;;34.75;19.95;;;22.90;33.20;;;;;;6160761;28;83315;-65
2021/03/04 02:42:17;;;;;;;35.25;20.88;;;22.90;33.10;;;;;;6170176;28;83612;-65
2021/03/04 02:45:17;;;;;;;33.55;18.92;;;22.90;33.50;;;;;;6170040;28;85820;-65
2021/03/04 02:48:18;;;;;;;32.60;20.00;;;22.90;33.70;;;;;;6164293;27;83155;-65
2021/03/04 02:51:18;;;;;;;32.15;19.25;;;22.90;33.50;;;;;;6172983;28;83294;-65
2021/03/04 02:54:19;;;;;;;33.83;18.77;;;22.90;33.10;;;;;;6165679;28;84538;-65
2021/03/04 02:57:19;;;;;;;29.67;18.00;;;22.90;33.50;;;;;;6167588;28;83905;-65
2021/03/04 03:00:20;;;;;;;33.00;18.80;;;23.00;33.40;;;;;;6155378;28;83378;-65
2021/03/04 03:03:20;;;;;;;28.83;17.58;;;22.90;33.60;;;;;;6169968;28;83852;-65
2021/03/04 03:06:21;;;;;;;33.25;17.05;;;22.90;33.50;;;;;;6171543;28;84012;-66
2021/03/04 03:09:22;;;;;;;31.70;17.27;;;22.90;33.70;;;;;;6168978;27;83750;-66
2021/03/04 03:12:22;;;;;;;30.63;17.98;;;22.90;34.30;;;;;;6168001;28;83290;-67
2021/03/04 03:15:23;;;;;;;30.08;17.80;;;22.90;33.90;;;;;;6167405;28;83592;-65
2021/03/04 03:18:23;;;;;;;27.55;17.38;;;22.90;33.80;;;;;;6166034;28;83407;-65
2021/03/04 03:21:24;;;;;;;29.75;17.17;;;22.90;34.00;;;;;;6167036;28;83276;-65
2021/03/04 03:24:24;;;;;;;30.95;16.65;;;22.90;33.70;;;;;;6171293;27;84238;-67
2021/03/04 03:27:26;;;;;;;26.85;16.77;;;22.90;33.70;;;;;;6173877;28;83536;-66
2021/03/04 03:30:26;;;;;;;27.40;16.27;;;22.90;34.10;;;;;;6170285;28;86111;-66
2021/03/04 03:33:27;;;;;;;25.52;15.55;;;22.90;34.40;;;;;;6166273;28;82810;-67
2021/03/04 03:36:27;;;;;;;26.15;15.80;;;22.90;33.80;;;;;;6164904;27;86524;-65
2021/03/04 03:39:28;;;;;;;27.77;17.77;;;22.90;34.00;;;;;;6167139;28;83522;-66
2021/03/04 03:42:28;;;;;;;27.42;16.23;;;22.90;34.40;;;;;;6174306;28;83744;-65
2021/03/04 03:45:29;;;;;;;26.42;15.52;;;22.80;34.40;;;;;;6173569;28;83140;-65
2021/03/04 03:48:30;;;;;;;26.23;15.48;;;22.90;34.50;;;;;;6167613;28;82867;-66
2021/03/04 03:51:30;;;;;;;27.20;15.25;;;22.80;34.80;;;;;;6173531;28;83410;-65
2021/03/04 03:54:31;;;;;;;26.27;15.80;;;22.80;34.70;;;;;;6167688;28;83987;-66
2021/03/04 03:57:31;;;;;;;25.10;14.65;;;22.80;34.70;;;;;;6170068;27;83678;-65
2021/03/04 04:00:32;;;;;;;22.83;14.45;;;22.80;34.50;;;;;;6167353;28;83360;-66
2021/03/04 04:03:32;;;;;;;25.38;15.68;;;22.80;34.20;;;;;;6172335;28;84545;-66
2021/03/04 04:06:33;;;;;;;25.38;15.38;;;22.80;34.30;;;;;;6173444;28;83444;-65
2021/03/04 04:09:34;;;;;;;26.67;15.93;;;22.80;34.50;;;;;;6173026;28;84227;-65
2021/03/04 04:12:34;;;;;;;27.80;16.48;;;22.80;34.70;;;;;;6174893;28;83415;-66
2021/03/04 04:15:35;;;;;;;27.80;16.35;;;22.80;34.40;;;;;;6175947;28;83558;-65
2021/03/04 04:18:35;;;;;;;25.77;15.65;;;22.80;34.00;;;;;;6165542;28;83636;-65
2021/03/04 04:21:36;;;;;;;25.92;14.82;;;22.80;33.90;;;;;;6167520;28;84221;-66
2021/03/04 04:24:36;;;;;;;21.95;15.63;;;22.80;33.20;;;;;;6163117;28;83150;-65
2021/03/04 04:27:37;;;;;;;25.55;16.52;;;22.80;33.10;;;;;;6173030;28;84937;-65
2021/03/04 04:30:37;;;;;;;22.23;14.05;;;22.80;33.10;;;;;;6169368;28;94533;-66
2021/03/04 04:33:38;;;;;;;28.20;16.38;;;22.80;32.90;;;;;;6167690;28;83470;-66
2021/03/04 04:36:38;;;;;;;29.40;15.73;;;22.90;32.90;;;;;;6170141;28;83967;-66
2021/03/04 04:39:39;;;;;;;23.42;15.35;;;22.90;32.70;;;;;;6169446;28;83775;-66
2021/03/04 04:42:39;;;;;;;24.27;15.07;;;23.00;32.60;;;;;;6168538;28;82977;-65
2021/03/04 04:45:40;;;;;;;24.13;15.25;;;23.00;32.40;;;;;;6172259;27;83192;-65
2021/03/04 04:48:41;;;;;;;23.58;15.30;;;23.10;32.40;;;;;;6171350;28;83622;-66
2021/03/04 04:51:41;;;;;;;24.83;15.38;;;23.10;32.30;;;;;;6170509;28;83694;-65
2021/03/04 04:54:42;;;;;;;23.23;15.23;;;23.10;32.40;;;;;;6165208;28;85855;-65
2021/03/04 04:57:42;;;;;;;23.85;14.43;;;23.10;32.40;;;;;;6168450;28;83988;-66
2021/03/04 05:00:43;;;;;;;24.52;15.07;;;23.20;32.40;;;;;;6160688;27;84681;-65
2021/03/04 05:03:43;;;;;;;22.75;14.07;;;23.20;32.50;;;;;;6168752;28;83066;-68
2021/03/04 05:06:44;;;;;;;22.42;14.30;;;23.20;32.40;;;;;;6173345;27;84985;-66
2021/03/04 05:09:44;;;;;;;28.20;15.30;;;23.20;32.40;;;;;;6165257;28;83340;-66
2021/03/04 05:12:45;;;;;;;24.45;15.52;;;23.20;32.40;;;;;;6168477;28;83397;-66
2021/03/04 05:15:45;;;;;;;23.65;15.38;;;23.20;32.40;;;;;;6168316;28;83502;-66
2021/03/04 05:18:46;;;;;;;26.83;15.75;;;23.20;32.30;;;;;;6163239;28;83077;-66
2021/03/04 05:21:46;;;;;;;22.55;14.13;;;23.20;32.20;;;;;;6167697;28;83233;-67
2021/03/04 05:24:47;;;;;;;24.77;15.50;;;23.30;32.20;;;;;;6170496;28;83713;-67
2021/03/04 05:27:47;;;;;;;23.40;15.52;;;23.30;32.20;;;;;;6171449;28;82906;-68
2021/03/04 05:30:48;;;;;;;22.85;14.57;;;23.30;32.20;;;;;;6169888;28;83341;-65
2021/03/04 05:33:49;;;;;;;22.75;14.13;;;23.30;32.20;;;;;;6168046;28;84533;-65
2021/03/04 05:36:49;;;;;;;23.80;13.93;;;23.20;32.60;;;;;;6170515;28;84057;-64
2021/03/04 05:39:50;;;;;;;21.52;12.18;;;23.20;34.30;;;;;;6173107;27;83426;-66
2021/03/04 05:42:50;;;;;;;15.73;9.82;;;23.20;35.20;;;;;;6162358;28;83376;-66
2021/03/04 05:45:51;;;;;;;13.35;8.07;;;23.10;37.60;;;;;;6174895;28;83318;-66
2021/03/04 05:48:52;;;;;;;11.32;7.70;;;23.10;39.40;;;;;;6174192;28;81319;-68
2021/03/04 05:51:52;;;;;;;14.27;8.52;;;23.10;40.30;;;;;;6171857;27;81650;-67
2021/03/04 05:54:53;;;;;;;15.48;8.35;;;23.10;41.80;;;;;;6169332;28;80472;-68
2021/03/04 05:57:53;;;;;;;14.57;8.05;;;23.10;42.60;;;;;;6168325;28;80875;-66
2021/03/04 06:00:54;;;;;;;9.68;6.30;;;23.00;43.00;;;;;;6176715;28;80708;-68
2021/03/04 06:03:57;;;;;;;12.38;6.53;;;23.10;43.30;;;;;;6175067;27;80754;-67
2021/03/04 06:06:58;;;;;;;11.23;6.80;;;23.10;43.90;;;;;;6165754;28;81203;-68
2021/03/04 06:09:58;;;;;;;15.15;6.38;;;23.20;43.70;;;;;;6169269;27;81261;-68
2021/03/04 06:12:59;;;;;;;11.00;5.95;;;23.20;44.30;;;;;;6173442;28;80749;-68
2021/03/04 06:16:03;;;;;;;10.55;7.00;;;23.10;44.70;;;;;;6168976;28;80436;-67
2021/03/04 06:19:03;;;;;;;9.00;5.18;;;23.20;45.10;;;;;;6175004;28;80905;-66
2021/03/04 06:22:04;;;;;;;11.02;5.38;;;23.20;45.30;;;;;;6171083;28;80625;-67
2021/03/04 06:25:04;;;;;;;8.32;5.28;;;23.20;45.60;;;;;;6165943;28;80788;-68
2021/03/04 06:28:05;;;;;;;11.48;5.88;;;23.20;45.90;;;;;;6172770;27;80458;-66
2021/03/04 06:31:05;;;;;;;10.05;5.05;;;23.20;45.90;;;;;;6170382;28;80720;-67
2021/03/04 06:34:06;;;;;;;13.23;5.22;;;23.20;46.00;;;;;;6176200;28;81994;-67
2021/03/04 06:37:06;;;;;;;8.32;5.10;;;23.20;46.00;;;;;;6168045;28;81686;-68
2021/03/04 06:40:07;;;;;;;9.75;5.90;;;23.20;46.20;;;;;;6173500;28;81220;-68
2021/03/04 06:43:07;;;;;;;9.38;6.38;;;23.20;46.60;;;;;;6173007;28;80649;-67
2021/03/04 06:46:09;;;;;;;11.35;5.68;;;23.20;46.00;;;;;;6173708;28;80919;-67
2021/03/04 06:49:10;;;;;;;9.60;6.20;;;23.20;45.60;;;;;;6173610;28;81117;-65
2021/03/04 06:52:10;;;;;;;11.55;6.78;;;23.30;46.50;;;;;;6170423;27;81263;-68
2021/03/04 06:55:11;;;;;;;10.63;6.32;;;23.20;46.60;;;;;;6151072;28;83381;-67
2021/03/04 06:58:11;;;;;;;10.38;6.55;;;23.20;45.40;;;;;;6170076;27;82188;-67
2021/03/04 07:01:12;;;;;;;11.60;7.20;;;23.20;45.90;;;;;;6162915;28;83152;-66
2021/03/04 07:04:13;;;;;;;7.90;5.90;;;23.20;45.70;;;;;;6168247;28;80356;-66
2021/03/04 07:07:13;;;;;;;10.65;6.30;;;23.20;45.90;;;;;;6178109;28;83468;-67
2021/03/04 07:10:14;;;;;;;10.02;6.15;;;23.20;45.40;;;;;;6169079;28;80813;-66
2021/03/04 07:13:14;;;;;;;11.05;6.53;;;23.20;46.00;;;;;;6175074;28;81153;-66
2021/03/04 07:16:15;;;;;;;15.10;7.10;;;23.20;45.50;;;;;;6177690;28;80511;-65
2021/03/04 07:19:16;;;;;;;14.48;8.45;;;23.20;45.40;;;;;;6171977;28;80881;-66
2021/03/04 07:22:17;;;;;;;15.35;7.68;;;23.10;45.60;;;;;;6179127;28;80415;-65
2021/03/04 07:25:17;;;;;;;13.23;7.70;;;23.10;47.10;;;;;;6178051;28;80823;-66
2021/03/04 07:28:18;;;;;;;13.43;8.02;;;23.10;46.60;;;;;;6170093;28;81305;-66
2021/03/04 07:31:18;;;;;;;11.93;7.20;;;23.10;46.10;;;;;;6161191;28;82262;-68
2021/03/04 07:34:19;;;;;;;10.05;6.85;;;23.10;46.40;;;;;;6174953;27;81234;-65
2021/03/04 07:37:20;;;;;;;11.63;6.75;;;23.10;46.40;;;;;;6175566;28;80457;-65
2021/03/04 07:40:20;;;;;;;13.38;7.78;;;23.10;46.20;;;;;;6176043;27;81413;-65
2021/03/04 07:43:21;;;;;;;13.48;6.22;;;23.10;46.50;;;;;;6173199;28;81663;-65
2021/03/04 07:46:21;;;;;;;11.07;7.50;;;23.10;46.10;;;;;;6173773;28;80554;-65
2021/03/04 07:49:22;;;;;;;13.85;7.38;;;23.10;47.00;;;;;;6171042;28;81536;-66
2021/03/04 07:52:23;;;;;;;17.58;7.53;;;23.20;46.40;;;;;;6158641;28;80680;-66
2021/03/04 07:55:23;;;;;;;10.60;7.10;;;23.20;46.60;;;;;;6159382;28;81428;-66
2021/03/04 07:58:24;;;;;;;12.32;7.90;;;23.20;46.40;;;;;;6169628;28;81222;-66
2021/03/04 08:01:24;;;;;;;11.50;6.85;;;23.20;45.90;;;;;;6168625;28;82623;-67
2021/03/04 08:04:25;;;;;;;10.80;7.32;;;23.20;46.40;;;;;;6167812;28;80965;-67
2021/03/04 08:07:25;;;;;;;10.27;7.10;;;23.20;46.60;;;;;;6175992;28;80803;-66
2021/03/04 08:10:26;;;;;;;12.70;7.75;;;23.20;46.20;;;;;;6159464;28;80386;-66
2021/03/04 08:13:26;;;;;;;11.13;6.70;;;23.20;46.40;;;;;;6179908;28;80803;-65
2021/03/04 08:16:27;;;;;;;13.43;5.97;;;23.30;46.40;;;;;;6164367;28;81375;-67
2021/03/04 08:19:28;;;;;;;10.40;6.32;;;23.30;46.30;;;;;;6174668;28;80527;-66
2021/03/04 08:22:28;;;;;;;11.48;6.55;;;23.30;46.50;;;;;;6168474;28;81172;-67
2021/03/04 08:25:29;;;;;;;11.30;6.45;;;23.30;47.20;;;;;;6172367;28;81446;-64
2021/03/04 08:28:29;;;;;;;10.68;6.63;;;23.30;46.30;;;;;;6156518;27;81678;-64
2021/03/04 08:31:30;;;;;;;11.80;6.32;;;23.30;46.80;;;;;;6175181;28;80710;-65
2021/03/04 08:34:30;;;;;;;7.82;5.57;;;23.30;46.30;;;;;;6151804;27;80809;-63
2021/03/04 08:37:31;;;;;;;11.68;6.72;;;23.30;46.70;;;;;;6173970;28;81877;-66
2021/03/04 08:40:31;;;;;;;10.35;6.20;;;23.30;47.30;;;;;;6170378;28;80641;-64
2021/03/04 08:43:32;;;;;;;9.68;6.20;;;23.30;47.10;;;;;;6173894;28;80497;-64
2021/03/04 08:46:33;;;;;;;9.38;5.90;;;23.30;47.40;;;;;;6176727;28;81106;-65
2021/03/04 08:49:33;;;;;;;9.10;6.45;;;23.30;47.90;;;;;;6177910;28;82019;-64
2021/03/04 08:52:34;;;;;;;9.93;5.85;;;23.30;47.90;;;;;;6174395;28;80813;-64
2021/03/04 08:55:34;;;;;;;10.55;6.85;;;23.40;48.00;;;;;;6178573;28;80929;-64
2021/03/04 08:58:35;;;;;;;8.40;5.63;;;23.30;48.70;;;;;;6177242;28;80766;-65
2021/03/04 09:01:35;;;;;;;8.80;5.95;;;23.40;48.00;;;;;;6175559;27;81119;-64
2021/03/04 09:04:36;;;;;;;8.98;5.10;;;23.40;48.10;;;;;;6175201;28;80802;-64
2021/03/04 09:07:37;;;;;;;7.35;5.07;;;23.40;48.00;;;;;;6165205;28;80955;-64
2021/03/04 09:10:37;;;;;;;9.38;5.30;;;23.40;47.80;;;;;;6151068;28;83800;-64
2021/03/04 09:13:38;;;;;;;8.98;5.90;;;23.40;47.20;;;;;;6174968;28;80780;-65
2021/03/04 09:16:38;;;;;;;56.92;21.52;;;23.40;47.50;;;;;;6174555;28;80580;-65
2021/03/04 09:19:40;;;;;;;125.07;47.22;;;23.40;47.20;;;;;;6173600;28;83434;-65
2021/03/04 09:22:40;;;;;;;170.90;69.13;;;23.40;47.20;;;;;;6173037;27;83820;-65
2021/03/04 09:25:41;;;;;;;266.45;111.20;;;23.50;47.30;;;;;;6173759;28;83909;-65
2021/03/04 09:28:42;;;;;;;275.73;111.07;;;23.50;46.90;;;;;;6170386;27;85706;-65
2021/03/04 09:31:42;;;;;;;396.05;148.63;;;23.50;46.60;;;;;;6170631;28;85996;-66
2021/03/04 09:34:43;;;;;;;415.48;153.52;;;23.50;46.50;;;;;;6169062;28;85745;-67
2021/03/04 09:37:43;;;;;;;321.80;125.00;;;23.50;46.50;;;;;;6170925;28;86400;-66
2021/03/04 09:40:44;;;;;;;272.10;107.68;;;23.50;46.00;;;;;;6163557;28;87041;-64
2021/03/04 09:43:45;;;;;;;242.55;97.45;;;23.50;45.60;;;;;;6170294;28;86362;-65
2021/03/04 09:46:45;;;;;;;206.23;83.85;;;23.50;45.30;;;;;;6169504;28;85783;-66
2021/03/04 09:49:46;;;;;;;181.05;73.15;;;23.50;45.50;;;;;;6161673;28;83432;-66
2021/03/04 09:52:46;;;;;;;145.55;61.90;;;23.50;45.30;;;;;;6171813;28;87071;-66
2021/03/04 09:55:47;;;;;;;127.25;51.90;;;23.50;45.50;;;;;;6164621;28;83403;-66
2021/03/04 09:58:48;;;;;;;109.55;43.97;;;23.50;44.90;;;;;;6163084;28;83354;-66
2021/03/04 10:01:48;;;;;;;99.80;37.10;;;23.50;44.70;;;;;;6168049;28;84017;-66
2021/03/04 10:04:49;;;;;;;85.88;33.80;;;23.50;44.50;;;;;;6168967;28;83573;-65
2021/03/04 10:07:50;;;;;;;66.30;28.90;;;23.50;44.60;;;;;;6167528;28;83627;-64
2021/03/04 10:10:51;;;;;;;61.72;25.52;;;23.50;44.30;;;;;;6153409;28;83795;-64
2021/03/04 10:13:51;;;;;;;54.10;21.90;;;23.50;44.50;;;;;;6160337;27;83882;-65
2021/03/04 10:16:52;;;;;;;51.28;20.73;;;23.50;44.30;;;;;;6159212;28;83725;-62
2021/03/04 10:19:52;;;;;;;45.08;19.95;;;23.50;44.50;;;;;;6166593;27;83387;-66
2021/03/04 10:22:53;;;;;;;43.17;20.30;;;23.60;44.70;;;;;;6156255;28;84279;-65
2021/03/04 10:25:54;;;;;;;44.92;20.25;;;23.60;44.30;;;;;;6166604;28;83219;-66
2021/03/04 10:28:54;;;;;;;41.78;18.35;;;23.60;44.50;;;;;;6162052;28;83214;-65
2021/03/04 10:31:55;;;;;;;38.85;16.17;;;23.60;43.70;;;;;;6163616;28;83806;-67
2021/03/04 10:34:55;;;;;;;40.92;16.63;;;23.60;43.20;;;;;;6156951;27;84106;-65
2021/03/04 10:37:56;;;;;;;33.83;17.00;;;23.50;42.80;;;;;;6145690;28;83403;-65
2021/03/04 10:40:56;;;;;;;32.20;15.23;;;23.50;42.60;;;;;;6140005;28;83188;-65
2021/03/04 10:43:57;;;;;;;36.80;16.08;;;23.50;43.20;;;;;;6143520;28;83235;-66
2021/03/04 10:46:57;;;;;;;35.10;15.90;;;23.50;41.80;;;;;;6139538;28;82844;-65
2021/03/04 10:49:58;;;;;;;35.15;15.07;;;23.60;42.00;;;;;;6143144;28;85475;-66
2021/03/04 10:52:58;;;;;;;29.83;13.95;;;23.50;42.40;;;;;;6147685;28;84720;-65
2021/03/04 10:55:59;;;;;;;22.63;13.57;;;23.50;42.50;;;;;;6143826;28;88218;-67
2021/03/04 10:59:00;;;;;;;28.55;14.80;;;23.50;43.10;;;;;;6145158;28;83378;-67
2021/03/04 11:02:00;;;;;;;23.48;12.35;;;23.50;41.90;;;;;;6146704;28;85107;-67
2021/03/04 11:05:01;;;;;;;25.85;13.73;;;23.60;43.40;;;;;;6144824;28;83862;-67
2021/03/04 11:08:01;;;;;;;28.05;13.65;;;23.60;43.90;;;;;;6143057;28;84212;-67
2021/03/04 11:11:02;;;;;;;32.28;14.20;;;23.60;44.90;;;;;;6137985;28;83305;-67
2021/03/04 11:14:03;;;;;;;28.85;14.38;;;23.60;44.50;;;;;;6147062;28;82793;-67
2021/03/04 11:17:04;;;;;;;26.98;14.00;;;23.60;45.80;;;;;;6145355;28;83323;-67
2021/03/04 11:20:04;;;;;;;25.77;13.70;;;23.60;44.90;;;;;;6147982;28;83246;-67
2021/03/04 11:23:05;;;;;;;34.08;18.38;;;23.60;45.80;;;;;;6146524;28;83361;-68
2021/03/04 11:26:05;;;;;;;36.13;21.20;;;23.60;42.00;;;;;;6139033;28;83730;-67
2021/03/04 11:29:06;;;;;;;35.88;19.90;;;23.50;41.50;;;;;;6142222;28;83648;-68
2021/03/04 11:32:07;;;;;;;30.25;15.75;;;23.50;43.50;;;;;;6141518;28;85894;-67
2021/03/04 11:35:07;;;;;;;30.50;15.15;;;23.50;43.60;;;;;;6162437;28;84487;-65
2021/03/04 11:38:08;;;;;;;31.60;14.60;;;23.60;43.10;;;;;;6165338;28;83468;-65
2021/03/04 11:41:08;;;;;;;25.55;14.43;;;23.60;43.10;;;;;;6165998;28;83901;-68
2021/03/04 11:44:09;;;;;;;27.77;13.20;;;23.60;44.00;;;;;;6170774;28;83169;-66
2021/03/04 11:47:09;;;;;;;20.52;12.32;;;23.60;43.40;;;;;;6173631;27;83895;-66
2021/03/04 11:50:10;;;;;;;22.58;12.23;;;23.60;44.40;;;;;;6173641;28;83469;-67
2021/03/04 11:53:11;;;;;;;25.50;12.95;;;23.60;44.50;;;;;;6176588;27;83212;-67
2021/03/04 11:56:11;;;;;;;27.02;12.85;;;23.60;43.30;;;;;;6163416;28;83763;-66
2021/03/04 11:59:13;;;;;;;23.98;11.15;;;23.60;43.90;;;;;;6170934;28;82949;-67
2021/03/04 12:02:14;;;;;;;21.55;10.68;;;23.60;43.10;;;;;;6161747;28;83663;-67
2021/03/04 12:05:14;;;;;;;19.45;10.65;;;23.60;43.50;;;;;;6173167;28;83474;-67
2021/03/04 12:08:15;;;;;;;19.98;9.88;;;23.60;44.10;;;;;;6149686;27;84626;-67
2021/03/04 12:11:15;;;;;;;18.88;10.48;;;23.50;44.70;;;;;;6174214;28;81842;-66
2021/03/04 12:14:16;;;;;;;19.02;10.25;;;23.50;43.70;;;;;;6155974;27;83871;-67
2021/03/04 12:17:16;;;;;;;23.20;9.43;;;23.50;44.90;;;;;;6170041;28;83505;-67
2021/03/04 12:20:17;;;;;;;18.30;9.13;;;23.50;43.10;;;;;;6178819;28;82910;-67
2021/03/04 12:23:18;;;;;;;15.20;9.43;;;23.50;43.20;;;;;;6171190;28;87215;-68
2021/03/04 12:26:18;;;;;;;21.45;9.82;;;23.50;43.40;;;;;;6152989;27;81391;-65
2021/03/04 12:29:19;;;;;;;13.30;8.45;;;23.50;41.70;;;;;;6165688;28;81989;-66
2021/03/04 12:32:20;;;;;;;16.45;9.93;;;23.50;42.00;;;;;;6169779;28;81536;-66
2021/03/04 12:35:20;;;;;;;14.40;9.07;;;23.50;43.60;;;;;;6171040;28;80645;-67
2021/03/04 12:38:21;;;;;;;16.63;9.43;;;23.50;42.70;;;;;;6170979;28;80703;-66
2021/03/04 12:41:21;;;;;;;17.08;9.38;;;23.50;42.40;;;;;;6172550;28;81783;-67
2021/03/04 12:44:22;;;;;;;13.95;8.10;;;23.50;41.40;;;;;;6174481;28;80692;-69
2021/03/04 12:47:22;;;;;;;16.02;9.02;;;23.40;41.00;;;;;;6172356;28;80769;-65
2021/03/04 12:50:23;;;;;;;14.02;8.15;;;23.40;41.10;;;;;;6170331;27;81663;-68
2021/03/04 12:53:23;;;;;;;14.77;7.90;;;23.50;41.10;;;;;;6168847;28;81644;-66
2021/03/04 12:56:24;;;;;;;15.52;8.82;;;23.50;40.80;;;;;;6172854;27;80606;-67
2021/03/04 12:59:25;;;;;;;13.18;7.63;;;23.50;40.70;;;;;;6169610;28;81436;-68
2021/03/04 13:02:25;;;;;;;15.75;9.27;;;23.50;40.30;;;;;;6168730;28;80883;-65
2021/03/04 13:05:27;;;;;;;11.68;7.90;;;23.50;40.00;;;;;;6170482;28;80746;-66
2021/03/04 13:08:27;;;;;;;12.05;7.63;;;23.50;39.50;;;;;;6166644;28;80725;-67
2021/03/04 13:11:28;;;;;;;12.10;7.57;;;23.50;40.10;;;;;;6167033;28;83057;-66
2021/03/04 13:14:28;;;;;;;12.93;7.95;;;23.50;40.20;;;;;;6176456;28;81732;-66
2021/03/04 13:17:29;;;;;;;13.15;8.07;;;23.50;39.70;;;;;;6167709;28;81114;-67
2021/03/04 13:20:29;;;;;;;12.88;8.40;;;23.50;39.20;;;;;;6160307;28;81782;-66
2021/03/04 13:23:30;;;;;;;11.65;8.15;;;23.40;39.00;;;;;;6172367;28;81566;-65
2021/03/04 13:26:31;;;;;;;12.48;8.32;;;23.50;39.00;;;;;;6174568;28;81176;-67
2021/03/04 13:29:31;;;;;;;12.68;8.27;;;23.50;39.30;;;;;;6168538;28;82345;-67
2021/03/04 13:32:32;;;;;;;15.10;8.77;;;23.50;39.10;;;;;;6166990;28;80568;-69
2021/03/04 13:35:32;;;;;;;13.65;7.47;;;23.50;39.10;;;;;;6167196;28;83241;-66
2021/03/04 13:38:33;;;;;;;15.45;8.13;;;23.50;39.40;;;;;;6166728;28;80903;-66
2021/03/04 13:41:33;;;;;;;15.55;8.65;;;23.50;38.20;;;;;;6172214;28;81227;-66
2021/03/04 13:44:34;;;;;;;13.48;8.00;;;23.50;38.90;;;;;;6170923;28;80980;-66
2021/03/04 13:47:34;;;;;;;14.27;7.85;;;23.50;38.60;;;;;;6155246;28;81754;-67
2021/03/04 13:50:35;;;;;;;12.77;8.52;;;23.50;38.90;;;;;;6168557;28;81535;-66
2021/03/04 13:53:36;;;;;;;13.55;8.80;;;23.50;39.10;;;;;;6171778;28;81378;-69
2021/03/04 13:56:36;;;;;;;13.40;7.82;;;23.50;39.00;;;;;;6169496;28;80819;-66
2021/03/04 13:59:37;;;;;;;11.23;7.82;;;23.50;39.00;;;;;;6174630;27;80262;-67
2021/03/04 14:02:37;;;;;;;12.68;8.02;;;23.50;39.50;;;;;;6168130;28;80574;-67
2021/03/04 14:05:38;;;;;;;15.50;8.57;;;23.50;39.20;;;;;;6166664;27;81823;-66
2021/03/04 14:08:38;;;;;;;25.45;10.45;;;23.50;39.20;;;;;;6167654;28;81608;-66
2021/03/04 14:11:39;;;;;;;32.25;13.32;;;23.50;38.80;;;;;;6170751;28;83258;-67
2021/03/04 14:14:39;;;;;;;36.53;12.82;;;23.50;39.60;;;;;;6168457;28;83695;-66
2021/03/04 14:17:40;;;;;;;33.03;13.35;;;23.50;38.70;;;;;;6167753;28;83171;-67
2021/03/04 14:20:41;;;;;;;33.83;12.80;;;23.50;38.90;;;;;;6167006;27;83051;-67
2021/03/04 14:23:41;;;;;;;31.65;13.80;;;23.50;38.80;;;;;;6167330;28;83130;-67
2021/03/04 14:26:42;;;;;;;32.55;12.95;;;23.50;39.20;;;;;;6151589;28;85386;-65
2021/03/04 14:29:42;;;;;;;34.22;11.48;;;23.50;38.90;;;;;;6166985;28;84175;-66
2021/03/04 14:32:43;;;;;;;30.20;11.93;;;23.50;38.80;;;;;;6167682;28;84301;-67
2021/03/04 14:35:44;;;;;;;25.00;11.27;;;23.50;38.70;;;;;;6167166;28;83404;-67
2021/03/04 14:38:45;;;;;;;20.65;10.82;;;23.50;39.10;;;;;;6169956;28;85680;-64
2021/03/04 14:41:45;;;;;;;25.52;9.48;;;23.50;39.10;;;;;;6159214;28;83873;-67
2021/03/04 14:44:46;;;;;;;27.75;10.00;;;23.50;39.60;;;;;;6173990;28;82615;-67
2021/03/04 14:47:46;;;;;;;19.50;9.07;;;23.50;39.30;;;;;;6167243;28;83161;-67
2021/03/04 14:50:47;;;;;;;28.42;10.82;;;23.50;39.20;;;;;;6169187;28;83706;-67
2021/03/04 14:53:48;;;;;;;27.02;8.80;;;23.50;39.40;;;;;;6162721;28;88415;-67
2021/03/04 14:56:48;;;;;;;17.83;8.38;;;23.50;39.50;;;;;;6175312;28;83060;-66
2021/03/04 14:59:49;;;;;;;16.58;8.10;;;23.50;39.20;;;;;;6173781;28;80560;-65
2021/03/04 15:02:52;;;;;;;18.67;8.48;;;23.50;39.60;;;;;;6175479;28;81007;-66
2021/03/04 15:05:52;;;;;;;15.90;8.65;;;23.40;39.80;;;;;;6169153;28;81010;-65
2021/03/04 15:08:53;;;;;;;13.98;8.48;;;23.50;39.40;;;;;;6165865;28;86100;-69
2021/03/04 15:11:53;;;;;;;19.83;9.02;;;23.50;41.60;;;;;;6170663;27;80805;-67
2021/03/04 15:14:54;;;;;;;18.08;8.98;;;23.50;40.80;;;;;;6146244;28;86146;-64
2021/03/04 15:17:55;;;;;;;13.43;7.75;;;23.50;40.50;;;;;;6170793;28;80890;-66
2021/03/04 15:20:55;;;;;;;18.67;8.60;;;23.40;40.30;;;;;;6174093;28;81044;-64